Terminal Aerodrome Forecast
Issued by NWS Wilmington, OH

Home | Current Version | Previous Version | Text Only | Print | Product List | Glossary On
Versions: 1 2 3 4 5 6 7 8 9 10 11 12 13 14 15 16 17 18
000
FTUS41 KILN 021853 AAA
TAFILN
TAF AMD
KILN 021853Z 0219/0318 30006KT P6SM VCTS BKN040CB
      TEMPO 0219/0221 3SM -TSRA OVC025CB
     FM030000 VRB03KT P6SM FEW040
     FM030700 00000KT 4SM BR FEW040
      TEMPO 0309/0311 1SM BR
     FM031400 29006KT P6SM SCT040=

USA.gov is the U.S. government's official web portal to all federal, state and local government web resources and services.